Etusivu
METAR-TAF:

METAR-TAF

Lentoasemat :

Tartto, Viro

Tarton lentoasema

Leveyspiiri: 58-18N, Pituuspiiri: 026-44E, korkeus merenpinnasta: 59 m

Tämänhetkinen sää

Tämä raportti tehtiin 1 tunti ja 5 minuuttia sitten, kello 03.50 UTC
Tuuli 4 kn idästä/koillisesta, vaihdellen pohjoisen/koillisen ja idän välillä
Lämpötila 10°C
Kosteus 93%
Ilmanpaine 1024 hPa
Näkyvyys: 4900 m
utua

METAR: EETU 210350Z AUTO 07004KT 030V100 4900 BR OVC002/// 10/09 Q1024

Aika: 07:55 (04:55 UTC)

Sääennuste

Tämä raportti tehtiin 8 tuntia ja 55 minuuttia sitten, kello 20.00 UTC
Ennuste voimassa 20. päivästä klo 21 UTC - 21. päivään klo 03 UTC
Tuuli 2 kn eri suunnista
Näkyvyys: 6000 m
Hajanaisia pilviä 500 ft:n korkeudessa
Ajoittain
20. päivästä klo 21 UTC - 21. päivään klo 03 UTC
Näkyvyys: 0500 m
Hajonneita pilviä 200 ft:n korkeudessa
sumuhattaroita

TAF: EETU 202000Z 2021/2103 VRB02KT 6000 SCT005 TEMPO 2021/2103 0500 BCFG BKN002

Säähavainnot ja -ennusteet yli 4000 lentoasemalta (METAR- ja TAF-raportit).

Käytössä olevat sääasemat on merkitty karttaan keltaisilla ja punaisilla pisteillä.

Aseta hiiri pisteen päälle nähdäksesi sääaseman nimen.

Klikkaa sitten nähdäksesi säähavainnot ja -ennusteet.

Kartan vaihtaminen: klikkaa mustalla rastilla varustettuja vihreitä pisteitä, niin voit zoomata sisään; viivalla varustettua vihreää pistettä, niin voit zoomata ulos tai vihreitä nuolia, niin pääset viereisille kartoille.


METAR-TAF: